Time;durP1;ratioP1;P1;durP2;ratioP2;P2;SDS_P1;SDS_P2;PMS_P1;PMS_P2;Temp;Humidity;BMP_temperature;BMP_pressure;BME280_temperature;BME280_humidity;BME280_pressure;Samples;Min_cycle;Max_cycle;Signal;HPM_P1;HPM_P2
2024/02/08 00:00:17;;;;;;;9.88;6.28;;;;;;;;;;705379;28;1233;-65
2024/02/08 00:00:37;;;;;;;10.60;6.73;;;;;;;;;;704955;28;813;-63
2024/02/08 00:00:57;;;;;;;9.57;6.50;;;;;;;;;;705308;27;4496;-64
2024/02/08 00:01:18;;;;;;;8.85;6.00;;;;;;;;;;703085;27;1913;-63
2024/02/08 00:01:38;;;;;;;9.97;6.10;;;;;;;;;;703746;28;896;-64
2024/02/08 00:01:58;;;;;;;8.33;6.10;;;;;;;;;;705280;28;1274;-62
2024/02/08 00:02:18;;;;;;;9.13;6.10;;;;;;;;;;703423;28;1473;-63
2024/02/08 00:02:39;;;;;;;9.13;5.80;;;;;;;;;;704755;28;1387;-63
2024/02/08 00:02:59;;;;;;;9.17;5.90;;;;;;;;;;705296;28;806;-63
2024/02/08 00:03:19;;;;;;;8.95;5.80;;;;;;;;;;704410;27;2503;-64
2024/02/08 00:03:40;;;;;;;10.50;6.33;;;;;;;;;;704368;27;1208;-64
2024/02/08 00:04:00;;;;;;;10.57;6.30;;;;;;;;;;701674;28;4353;-63
2024/02/08 00:04:20;;;;;;;9.55;6.10;;;;;;;;;;702140;28;2386;-62
2024/02/08 00:04:41;;;;;;;10.47;6.40;;;;;;;;;;705793;27;935;-63
2024/02/08 00:05:02;;;;;;;10.85;6.80;;;;;;;;;;701813;28;750;-63
2024/02/08 00:05:22;;;;;;;10.77;6.65;;;;;;;;;;698047;28;1719;-63
2024/02/08 00:05:42;;;;;;;10.63;6.20;;;;;;;;;;702614;28;1209;-63
2024/02/08 00:06:03;;;;;;;10.13;6.73;;;;;;;;;;702911;28;1061;-63
2024/02/08 00:06:23;;;;;;;11.68;7.60;;;;;;;;;;700123;28;1738;-63
2024/02/08 00:06:43;;;;;;;10.93;7.60;;;;;;;;;;699430;28;975;-63
2024/02/08 00:07:04;;;;;;;10.45;7.63;;;;;;;;;;704977;27;4364;-63
2024/02/08 00:07:24;;;;;;;11.27;7.80;;;;;;;;;;703639;28;1467;-63
2024/02/08 00:07:45;;;;;;;11.77;7.63;;;;;;;;;;704718;28;1253;-64
2024/02/08 00:08:06;;;;;;;12.10;7.87;;;;;;;;;;704755;27;1009;-63
2024/02/08 00:08:26;;;;;;;12.65;7.90;;;;;;;;;;700035;28;1931;-64
2024/02/08 00:08:46;;;;;;;13.00;7.87;;;;;;;;;;702275;28;880;-63
2024/02/08 00:09:08;;;;;;;12.40;7.88;;;;;;;;;;701691;28;1543;-63
2024/02/08 00:09:28;;;;;;;12.80;8.10;;;;;;;;;;698311;28;1770;-65
2024/02/08 00:09:50;;;;;;;11.25;7.72;;;;;;;;;;702671;28;939;-63
2024/02/08 00:10:11;;;;;;;11.60;7.70;;;;;;;;;;700743;28;4270;-62
2024/02/08 00:10:31;;;;;;;12.17;7.60;;;;;;;;;;698882;28;1198;-64
2024/02/08 00:10:51;;;;;;;11.83;8.03;;;;;;;;;;700036;28;1230;-62
2024/02/08 00:11:12;;;;;;;13.07;7.93;;;;;;;;;;698578;28;1688;-64
2024/02/08 00:11:32;;;;;;;12.32;8.20;;;;;;;;;;695784;28;1738;-63
2024/02/08 00:11:52;;;;;;;12.40;7.97;;;;;;;;;;695820;28;1484;-63
2024/02/08 00:12:13;;;;;;;11.83;7.80;;;;;;;;;;698492;28;1365;-64
2024/02/08 00:12:34;;;;;;;12.68;7.85;;;;;;;;;;698012;28;1705;-63
2024/02/08 00:12:54;;;;;;;12.43;7.72;;;;;;;;;;699690;28;4521;-63
2024/02/08 00:13:17;;;;;;;12.43;7.70;;;;;;;;;;702382;28;969;-63
2024/02/08 00:13:37;;;;;;;13.02;7.75;;;;;;;;;;701153;28;1214;-63
2024/02/08 00:13:57;;;;;;;11.73;7.73;;;;;;;;;;704485;28;1218;-62
2024/02/08 00:14:18;;;;;;;11.57;7.57;;;;;;;;;;706621;27;923;-64
2024/02/08 00:14:38;;;;;;;11.63;7.57;;;;;;;;;;700165;28;2209;-63
2024/02/08 00:14:59;;;;;;;12.52;7.97;;;;;;;;;;699099;28;923;-63
2024/02/08 00:15:19;;;;;;;12.03;8.07;;;;;;;;;;698250;28;1466;-64
2024/02/08 00:15:39;;;;;;;12.35;7.80;;;;;;;;;;700287;28;1008;-63
2024/02/08 00:16:00;;;;;;;12.50;7.97;;;;;;;;;;699031;28;4478;-63
2024/02/08 00:16:20;;;;;;;12.00;8.05;;;;;;;;;;697937;28;1867;-64
2024/02/08 00:16:40;;;;;;;11.27;7.93;;;;;;;;;;701944;28;877;-63
2024/02/08 00:17:02;;;;;;;11.17;7.60;;;;;;;;;;705055;28;1273;-63
2024/02/08 00:17:22;;;;;;;11.77;7.78;;;;;;;;;;700825;28;2131;-63
2024/02/08 00:17:43;;;;;;;13.00;7.77;;;;;;;;;;701729;28;864;-63
2024/02/08 00:18:03;;;;;;;12.63;7.78;;;;;;;;;;702951;28;1370;-63
2024/02/08 00:18:25;;;;;;;11.20;7.47;;;;;;;;;;701195;28;981;-63
2024/02/08 00:18:45;;;;;;;12.40;7.80;;;;;;;;;;702093;28;1289;-63
2024/02/08 00:19:05;;;;;;;13.07;8.00;;;;;;;;;;701497;28;4491;-64
2024/02/08 00:19:25;;;;;;;11.52;7.68;;;;;;;;;;703257;28;1751;-63
2024/02/08 00:19:48;;;;;;;11.77;7.60;;;;;;;;;;704528;28;1215;-63
2024/02/08 00:20:08;;;;;;;10.90;7.70;;;;;;;;;;704496;28;1185;-63
2024/02/08 00:20:29;;;;;;;11.75;7.60;;;;;;;;;;700504;28;2172;-63
2024/02/08 00:20:49;;;;;;;12.20;7.73;;;;;;;;;;701690;28;911;-62
2024/02/08 00:21:09;;;;;;;11.60;7.60;;;;;;;;;;702656;28;1064;-64
2024/02/08 00:21:32;;;;;;;10.03;7.13;;;;;;;;;;700554;28;1980;-63
2024/02/08 00:21:52;;;;;;;13.35;7.72;;;;;;;;;;700807;28;1238;-65
2024/02/08 00:22:12;;;;;;;10.97;7.27;;;;;;;;;;701187;28;4565;-63
2024/02/08 00:22:32;;;;;;;11.60;7.53;;;;;;;;;;705184;28;1727;-62
2024/02/08 00:22:53;;;;;;;12.27;7.83;;;;;;;;;;704183;28;1288;-62
2024/02/08 00:23:14;;;;;;;12.30;7.55;;;;;;;;;;704185;28;932;-64
2024/02/08 00:23:36;;;;;;;12.70;7.63;;;;;;;;;;703150;28;1517;-63
2024/02/08 00:23:57;;;;;;;9.85;7.03;;;;;;;;;;705398;28;1236;-63
2024/02/08 00:24:19;;;;;;;10.47;7.17;;;;;;;;;;700017;28;1265;-63
2024/02/08 00:24:39;;;;;;;12.65;7.10;;;;;;;;;;697826;28;1747;-62
2024/02/08 00:25:00;;;;;;;11.57;7.47;;;;;;;;;;698807;28;4506;-63
2024/02/08 00:25:23;;;;;;;11.10;7.40;;;;;;;;;;697657;28;1032;-63
2024/02/08 00:25:45;;;;;;;11.27;7.60;;;;;;;;;;700259;28;980;-63
2024/02/08 00:26:06;;;;;;;10.65;7.60;;;;;;;;;;701133;28;982;-63
2024/02/08 00:26:26;;;;;;;11.43;7.43;;;;;;;;;;701535;28;1487;-63
2024/02/08 00:26:47;;;;;;;12.20;7.83;;;;;;;;;;704938;28;1249;-63
2024/02/08 00:27:07;;;;;;;11.53;7.53;;;;;;;;;;705821;28;781;-63
2024/02/08 00:27:27;;;;;;;11.07;7.28;;;;;;;;;;701353;28;1896;-63
2024/02/08 00:27:48;;;;;;;10.33;7.40;;;;;;;;;;701996;28;920;-63
2024/02/08 00:28:11;;;;;;;11.05;7.57;;;;;;;;;;701351;28;4330;-62
2024/02/08 00:28:31;;;;;;;11.20;7.25;;;;;;;;;;699602;28;2131;-62
2024/02/08 00:28:52;;;;;;;12.03;7.63;;;;;;;;;;702368;28;827;-63
2024/02/08 00:29:12;;;;;;;10.43;6.82;;;;;;;;;;698988;28;1425;-63
2024/02/08 00:29:32;;;;;;;10.23;6.87;;;;;;;;;;699224;28;1699;-63
2024/02/08 00:29:52;;;;;;;10.47;7.13;;;;;;;;;;701021;28;1059;-62
2024/02/08 00:30:15;;;;;;;10.48;7.00;;;;;;;;;;701184;28;916;-63
2024/02/08 00:30:38;;;;;;;11.23;7.38;;;;;;;;;;699116;28;1775;-63
2024/02/08 00:30:58;;;;;;;12.10;6.90;;;;;;;;;;698899;28;4530;-62
2024/02/08 00:31:19;;;;;;;12.13;7.37;;;;;;;;;;701507;28;928;-63
2024/02/08 00:31:39;;;;;;;9.88;7.00;;;;;;;;;;698453;28;1110;-63
2024/02/08 00:32:00;;;;;;;10.00;7.25;;;;;;;;;;701168;28;939;-63
2024/02/08 00:32:20;;;;;;;10.57;7.47;;;;;;;;;;700751;28;1857;-64
2024/02/08 00:32:40;;;;;;;11.70;7.45;;;;;;;;;;701661;28;920;-63
2024/02/08 00:33:02;;;;;;;10.67;7.03;;;;;;;;;;705603;28;1260;-63
2024/02/08 00:33:25;;;;;;;9.75;7.13;;;;;;;;;;702747;28;1793;-63
2024/02/08 00:33:48;;;;;;;9.95;6.88;;;;;;;;;;705965;28;908;-63
2024/02/08 00:34:09;;;;;;;10.75;7.28;;;;;;;;;;706159;28;4332;-62
2024/02/08 00:34:29;;;;;;;11.07;7.22;;;;;;;;;;703076;28;2060;-64
2024/02/08 00:34:49;;;;;;;11.47;7.23;;;;;;;;;;703114;28;1411;-64
2024/02/08 00:35:09;;;;;;;10.43;7.13;;;;;;;;;;705524;28;896;-63
2024/02/08 00:35:29;;;;;;;11.23;7.03;;;;;;;;;;703371;28;1067;-63
2024/02/08 00:35:50;;;;;;;10.95;7.22;;;;;;;;;;704372;28;840;-63
2024/02/08 00:36:11;;;;;;;10.50;7.33;;;;;;;;;;703891;28;876;-63
2024/02/08 00:36:31;;;;;;;12.07;7.82;;;;;;;;;;702655;28;1719;-63
2024/02/08 00:36:52;;;;;;;12.00;7.68;;;;;;;;;;705450;28;824;-63
2024/02/08 00:37:12;;;;;;;10.73;7.30;;;;;;;;;;703207;28;4545;-64
2024/02/08 00:37:33;;;;;;;11.50;7.70;;;;;;;;;;700784;28;2184;-64
2024/02/08 00:37:53;;;;;;;10.77;7.37;;;;;;;;;;702668;28;1336;-63
2024/02/08 00:38:13;;;;;;;9.80;6.80;;;;;;;;;;698441;28;1588;-63
2024/02/08 00:38:35;;;;;;;10.17;7.00;;;;;;;;;;696854;28;1901;-63
2024/02/08 00:38:55;;;;;;;11.00;7.05;;;;;;;;;;700015;28;1267;-63
2024/02/08 00:39:15;;;;;;;11.50;7.17;;;;;;;;;;699270;28;856;-61
2024/02/08 00:39:40;;;;;;;11.53;7.37;;;;;;;;;;700077;28;1863;-62
2024/02/08 00:40:00;;;;;;;11.77;7.13;;;;;;;;;;701706;28;4506;-63
2024/02/08 00:40:20;;;;;;;10.97;7.50;;;;;;;;;;704889;28;886;-64
2024/02/08 00:40:41;;;;;;;11.37;7.57;;;;;;;;;;703301;28;1250;-64
2024/02/08 00:41:01;;;;;;;11.73;7.63;;;;;;;;;;704329;28;793;-64
2024/02/08 00:41:23;;;;;;;11.17;7.53;;;;;;;;;;702928;28;1945;-63
2024/02/08 00:41:50;;;;;;;11.77;7.60;;;;;;;;;;704138;28;1277;-63
2024/02/08 00:42:13;;;;;;;12.15;7.55;;;;;;;;;;703223;28;837;-63
2024/02/08 00:42:33;;;;;;;14.05;8.10;;;;;;;;;;703634;28;1815;-63
2024/02/08 00:42:53;;;;;;;13.53;8.27;;;;;;;;;;706197;28;1304;-63
2024/02/08 00:43:13;;;;;;;11.75;7.82;;;;;;;;;;702424;28;4295;-63
2024/02/08 00:43:34;;;;;;;11.40;7.30;;;;;;;;;;700802;28;1790;-62
2024/02/08 00:43:54;;;;;;;13.13;7.63;;;;;;;;;;702152;28;911;-62
2024/02/08 00:44:14;;;;;;;13.63;8.20;;;;;;;;;;702484;28;923;-64
2024/02/08 00:44:35;;;;;;;12.60;7.80;;;;;;;;;;698819;28;1737;-63
2024/02/08 00:44:55;;;;;;;12.33;7.93;;;;;;;;;;703582;28;800;-63
2024/02/08 00:45:18;;;;;;;12.60;7.63;;;;;;;;;;705505;28;1414;-64
2024/02/08 00:45:39;;;;;;;12.75;8.15;;;;;;;;;;700938;28;2116;-63
2024/02/08 00:46:02;;;;;;;12.65;8.27;;;;;;;;;;700553;28;4387;-64
2024/02/08 00:46:22;;;;;;;12.23;8.10;;;;;;;;;;698085;28;1778;-63
2024/02/08 00:46:43;;;;;;;12.02;8.10;;;;;;;;;;701621;28;3451;-64
2024/02/08 00:47:05;;;;;;;12.33;8.10;;;;;;;;;;702238;28;936;-62
2024/02/08 00:47:25;;;;;;;12.55;8.15;;;;;;;;;;700253;28;987;-63
2024/02/08 00:47:45;;;;;;;12.67;8.07;;;;;;;;;;705622;28;1214;-63
2024/02/08 00:48:06;;;;;;;13.02;8.20;;;;;;;;;;701579;28;916;-62
2024/02/08 00:48:26;;;;;;;11.67;8.17;;;;;;;;;;699362;28;2255;-64
2024/02/08 00:48:46;;;;;;;12.20;8.10;;;;;;;;;;699915;28;879;-63
2024/02/08 00:49:07;;;;;;;11.90;8.05;;;;;;;;;;700032;28;4520;-64
2024/02/08 00:49:27;;;;;;;12.20;8.20;;;;;;;;;;700573;28;1522;-63
2024/02/08 00:49:48;;;;;;;12.90;8.27;;;;;;;;;;702815;28;857;-64
2024/02/08 00:50:08;;;;;;;13.50;8.27;;;;;;;;;;702802;28;962;-64
2024/02/08 00:50:28;;;;;;;12.90;8.25;;;;;;;;;;699959;28;1765;-63
2024/02/08 00:50:48;;;;;;;11.80;8.00;;;;;;;;;;701470;28;1203;-62
2024/02/08 00:51:09;;;;;;;12.40;8.13;;;;;;;;;;701969;28;987;-63
2024/02/08 00:51:31;;;;;;;12.65;8.20;;;;;;;;;;696832;28;2381;-64
2024/02/08 00:51:51;;;;;;;13.43;8.55;;;;;;;;;;696343;28;1230;-64
2024/02/08 00:52:12;;;;;;;13.03;8.50;;;;;;;;;;698329;28;4315;-63
2024/02/08 00:52:33;;;;;;;13.82;8.18;;;;;;;;;;697773;28;1921;-64
2024/02/08 00:52:53;;;;;;;12.95;7.65;;;;;;;;;;698834;28;983;-64
2024/02/08 00:53:13;;;;;;;12.83;7.63;;;;;;;;;;697808;28;904;-63
2024/02/08 00:53:33;;;;;;;13.23;8.23;;;;;;;;;;697810;28;2184;-62
2024/02/08 00:53:57;;;;;;;12.33;8.03;;;;;;;;;;701107;28;1226;-63
2024/02/08 00:54:18;;;;;;;11.63;7.88;;;;;;;;;;698473;28;1574;-63
2024/02/08 00:54:38;;;;;;;10.80;7.90;;;;;;;;;;697100;28;1051;-63
2024/02/08 00:54:59;;;;;;;12.38;8.07;;;;;;;;;;698865;28;4272;-63
2024/02/08 00:55:19;;;;;;;11.88;8.00;;;;;;;;;;699689;28;1017;-63
2024/02/08 00:55:43;;;;;;;10.87;7.53;;;;;;;;;;700618;28;1896;-63
2024/02/08 00:56:04;;;;;;;11.55;7.82;;;;;;;;;;701957;28;959;-63
2024/02/08 00:56:24;;;;;;;13.50;8.30;;;;;;;;;;700679;28;1599;-63
2024/02/08 00:56:44;;;;;;;14.10;8.83;;;;;;;;;;703693;28;952;-64
2024/02/08 00:57:07;;;;;;;12.40;8.27;;;;;;;;;;704412;28;1025;-62
2024/02/08 00:57:32;;;;;;;12.20;8.15;;;;;;;;;;703781;28;1939;-63
2024/02/08 00:57:54;;;;;;;12.10;8.18;;;;;;;;;;704154;28;916;-63
2024/02/08 00:58:15;;;;;;;13.50;8.25;;;;;;;;;;703477;28;4610;-62
2024/02/08 00:58:36;;;;;;;13.82;9.00;;;;;;;;;;700819;28;1446;-63
2024/02/08 00:58:56;;;;;;;12.77;8.67;;;;;;;;;;700973;28;1256;-64
2024/02/08 00:59:16;;;;;;;12.77;8.80;;;;;;;;;;701875;28;757;-62
2024/02/08 00:59:37;;;;;;;13.50;8.70;;;;;;;;;;700553;28;1758;-63
2024/02/08 00:59:57;;;;;;;14.80;8.63;;;;;;;;;;703064;28;872;-64
2024/02/08 01:00:18;;;;;;;12.32;8.32;;;;;;;;;;702653;28;1092;-63
2024/02/08 01:00:38;;;;;;;14.50;8.47;;;;;;;;;;702947;28;2010;-63
2024/02/08 01:00:58;;;;;;;14.40;8.63;;;;;;;;;;702700;28;4227;-63
2024/02/08 01:01:18;;;;;;;13.67;8.83;;;;;;;;;;705546;28;1980;-62
2024/02/08 01:01:40;;;;;;;13.70;8.53;;;;;;;;;;702692;28;1461;-63
2024/02/08 01:02:00;;;;;;;15.07;8.60;;;;;;;;;;704782;27;1285;-63
2024/02/08 01:02:21;;;;;;;13.87;8.20;;;;;;;;;;705022;27;916;-63
2024/02/08 01:02:43;;;;;;;12.00;8.00;;;;;;;;;;704063;27;1520;-63
2024/02/08 01:03:07;;;;;;;12.95;8.20;;;;;;;;;;704594;27;884;-63
2024/02/08 01:03:27;;;;;;;12.30;8.20;;;;;;;;;;700221;28;1748;-63
2024/02/08 01:03:47;;;;;;;11.50;8.27;;;;;;;;;;700648;28;1226;-64
2024/02/08 01:04:07;;;;;;;12.00;8.40;;;;;;;;;;700972;28;4383;-63
2024/02/08 01:04:28;;;;;;;12.35;8.05;;;;;;;;;;699550;28;2097;-64
2024/02/08 01:04:48;;;;;;;13.27;8.23;;;;;;;;;;701037;28;805;-63
2024/02/08 01:05:09;;;;;;;13.95;8.18;;;;;;;;;;699667;28;920;-62
2024/02/08 01:05:29;;;;;;;12.83;7.97;;;;;;;;;;699599;28;1085;-64
2024/02/08 01:05:52;;;;;;;13.77;8.30;;;;;;;;;;701658;28;1163;-63
2024/02/08 01:06:12;;;;;;;13.15;8.13;;;;;;;;;;701983;28;1042;-64
2024/02/08 01:06:33;;;;;;;13.40;8.00;;;;;;;;;;700006;28;1786;-63
2024/02/08 01:06:53;;;;;;;13.13;7.80;;;;;;;;;;701182;28;4516;-64
2024/02/08 01:07:14;;;;;;;12.73;7.90;;;;;;;;;;699375;28;912;-63
2024/02/08 01:07:35;;;;;;;12.80;8.10;;;;;;;;;;698897;28;1729;-63
2024/02/08 01:07:56;;;;;;;12.98;7.90;;;;;;;;;;700160;28;951;-62
2024/02/08 01:08:16;;;;;;;12.65;8.07;;;;;;;;;;700632;28;848;-63
2024/02/08 01:08:36;;;;;;;12.23;7.90;;;;;;;;;;700170;28;2380;-63
2024/02/08 01:08:57;;;;;;;14.03;8.37;;;;;;;;;;703286;28;822;-62
2024/02/08 01:09:17;;;;;;;13.43;8.63;;;;;;;;;;704950;27;1521;-63
2024/02/08 01:09:37;;;;;;;14.03;8.50;;;;;;;;;;702880;28;2416;-63
2024/02/08 01:09:58;;;;;;;13.07;8.13;;;;;;;;;;705271;27;4401;-62
2024/02/08 01:10:18;;;;;;;12.93;8.32;;;;;;;;;;703672;27;892;-63
2024/02/08 01:10:38;;;;;;;12.30;8.27;;;;;;;;;;703127;27;987;-62
2024/02/08 01:10:59;;;;;;;12.80;8.40;;;;;;;;;;704835;27;1412;-62
2024/02/08 01:11:19;;;;;;;13.33;8.20;;;;;;;;;;705047;28;1387;-62
2024/02/08 01:11:39;;;;;;;12.70;7.73;;;;;;;;;;703477;28;2109;-63
2024/02/08 01:12:01;;;;;;;12.70;8.10;;;;;;;;;;704527;27;852;-63
2024/02/08 01:12:23;;;;;;;14.25;8.55;;;;;;;;;;702449;28;951;-63
2024/02/08 01:12:44;;;;;;;13.20;8.40;;;;;;;;;;701566;28;1253;-64
2024/02/08 01:13:04;;;;;;;13.03;8.40;;;;;;;;;;699701;28;4436;-63
2024/02/08 01:13:26;;;;;;;13.75;8.23;;;;;;;;;;698164;28;1800;-63
2024/02/08 01:13:47;;;;;;;12.95;7.80;;;;;;;;;;697936;28;972;-63
2024/02/08 01:14:07;;;;;;;13.02;8.10;;;;;;;;;;699946;28;849;-63
2024/02/08 01:14:27;;;;;;;13.13;8.40;;;;;;;;;;701390;28;1696;-63
2024/02/08 01:14:48;;;;;;;13.33;8.30;;;;;;;;;;701398;28;1038;-64
2024/02/08 01:15:14;;;;;;;14.38;8.65;;;;;;;;;;704766;27;947;-63
2024/02/08 01:15:37;;;;;;;14.00;8.25;;;;;;;;;;702984;27;1923;-63
2024/02/08 01:15:58;;;;;;;14.80;8.55;;;;;;;;;;704215;27;4369;-64
2024/02/08 01:16:18;;;;;;;13.73;8.52;;;;;;;;;;701108;28;1205;-62
2024/02/08 01:16:45;;;;;;;14.00;8.57;;;;;;;;;;700685;28;2045;-63
2024/02/08 01:17:05;;;;;;;12.85;8.30;;;;;;;;;;702241;28;852;-63
2024/02/08 01:17:25;;;;;;;12.55;8.18;;;;;;;;;;700475;28;1793;-63
2024/02/08 01:17:46;;;;;;;12.90;7.97;;;;;;;;;;702985;28;1435;-62
2024/02/08 01:18:06;;;;;;;12.32;8.13;;;;;;;;;;704789;27;887;-62
2024/02/08 01:18:27;;;;;;;12.13;8.17;;;;;;;;;;704774;27;2168;-63
2024/02/08 01:18:48;;;;;;;13.50;8.70;;;;;;;;;;706497;27;896;-63
2024/02/08 01:19:08;;;;;;;11.68;7.20;;;;;;;;;;704722;27;4697;-64
2024/02/08 01:19:28;;;;;;;12.37;6.90;;;;;;;;;;703334;28;2499;-63
2024/02/08 01:19:50;;;;;;;14.77;8.47;;;;;;;;;;705470;27;936;-63
2024/02/08 01:20:10;;;;;;;14.43;8.70;;;;;;;;;;705764;27;943;-62
2024/02/08 01:20:32;;;;;;;15.13;8.60;;;;;;;;;;700553;28;1840;-63
2024/02/08 01:20:52;;;;;;;14.25;8.82;;;;;;;;;;701863;28;1419;-63
2024/02/08 01:21:12;;;;;;;13.83;8.17;;;;;;;;;;701665;28;1128;-63
2024/02/08 01:21:34;;;;;;;15.27;8.13;;;;;;;;;;698490;28;2047;-63
2024/02/08 01:21:58;;;;;;;15.00;8.38;;;;;;;;;;699166;28;4467;-63
2024/02/08 01:22:21;;;;;;;15.02;8.35;;;;;;;;;;699940;28;1273;-63
2024/02/08 01:22:41;;;;;;;12.95;8.02;;;;;;;;;;699203;28;1522;-63
2024/02/08 01:23:04;;;;;;;13.13;8.27;;;;;;;;;;700402;28;1240;-63
2024/02/08 01:23:25;;;;;;;14.10;8.02;;;;;;;;;;699630;28;2540;-63
2024/02/08 01:23:46;;;;;;;12.90;7.80;;;;;;;;;;700537;28;1152;-64
2024/02/08 01:24:06;;;;;;;12.85;7.65;;;;;;;;;;702400;28;1257;-63
2024/02/08 01:24:28;;;;;;;13.77;7.77;;;;;;;;;;701126;28;1733;-63
2024/02/08 01:24:49;;;;;;;13.18;7.97;;;;;;;;;;705713;27;1027;-63
2024/02/08 01:25:09;;;;;;;12.20;7.63;;;;;;;;;;705242;27;4219;-64
2024/02/08 01:25:29;;;;;;;12.63;7.38;;;;;;;;;;705135;27;2195;-63
2024/02/08 01:25:49;;;;;;;13.13;7.93;;;;;;;;;;704442;27;1300;-63
2024/02/08 01:26:10;;;;;;;14.00;8.40;;;;;;;;;;706699;27;891;-64
2024/02/08 01:26:31;;;;;;;13.15;8.38;;;;;;;;;;700849;28;2419;-63
2024/02/08 01:26:51;;;;;;;13.35;8.27;;;;;;;;;;702515;28;1011;-63
2024/02/08 01:27:11;;;;;;;14.00;8.60;;;;;;;;;;702817;28;1262;-63
2024/02/08 01:27:32;;;;;;;13.43;8.55;;;;;;;;;;697969;28;1684;-63
2024/02/08 01:27:52;;;;;;;13.93;8.23;;;;;;;;;;700743;28;948;-62
2024/02/08 01:28:12;;;;;;;14.87;8.20;;;;;;;;;;699081;28;4451;-63
2024/02/08 01:28:34;;;;;;;12.68;8.10;;;;;;;;;;701080;28;1957;-63
2024/02/08 01:28:54;;;;;;;14.07;8.40;;;;;;;;;;701057;28;987;-63
2024/02/08 01:29:14;;;;;;;12.93;7.68;;;;;;;;;;703605;27;931;-64
2024/02/08 01:29:35;;;;;;;13.17;8.27;;;;;;;;;;702337;27;1793;-63
2024/02/08 01:29:59;;;;;;;12.60;8.03;;;;;;;;;;705047;27;1080;-63
2024/02/08 01:30:19;;;;;;;12.68;7.63;;;;;;;;;;702878;28;842;-63
2024/02/08 01:30:39;;;;;;;11.97;7.70;;;;;;;;;;697838;28;1134;-62
2024/02/08 01:31:01;;;;;;;12.73;7.90;;;;;;;;;;698937;28;4340;-63
2024/02/08 01:31:21;;;;;;;14.20;7.95;;;;;;;;;;697949;28;1015;-64
2024/02/08 01:31:42;;;;;;;12.97;7.80;;;;;;;;;;696931;28;1814;-64
2024/02/08 01:32:02;;;;;;;12.77;8.15;;;;;;;;;;699064;28;1238;-63
2024/02/08 01:32:22;;;;;;;12.67;8.10;;;;;;;;;;701226;28;826;-64
2024/02/08 01:32:43;;;;;;;13.43;8.10;;;;;;;;;;702657;28;1175;-63
2024/02/08 01:33:04;;;;;;;13.57;8.30;;;;;;;;;;704708;27;1282;-64
2024/02/08 01:33:25;;;;;;;14.52;8.15;;;;;;;;;;704190;27;1757;-63
2024/02/08 01:33:48;;;;;;;14.43;8.13;;;;;;;;;;704460;27;1213;-63
2024/02/08 01:34:09;;;;;;;12.45;8.20;;;;;;;;;;700148;28;4372;-64
2024/02/08 01:34:30;;;;;;;12.73;7.97;;;;;;;;;;701831;28;1451;-63
2024/02/08 01:34:51;;;;;;;11.93;7.85;;;;;;;;;;701242;28;1026;-64
2024/02/08 01:35:12;;;;;;;14.50;8.00;;;;;;;;;;701913;28;793;-62
2024/02/08 01:35:33;;;;;;;14.07;8.52;;;;;;;;;;699544;28;909;-63
2024/02/08 01:35:53;;;;;;;13.27;8.35;;;;;;;;;;702262;28;761;-62
2024/02/08 01:36:15;;;;;;;12.57;7.87;;;;;;;;;;702120;28;903;-63
2024/02/08 01:36:37;;;;;;;12.52;8.27;;;;;;;;;;701351;28;1715;-63
2024/02/08 01:36:59;;;;;;;13.32;8.68;;;;;;;;;;698947;28;4364;-64
2024/02/08 01:37:20;;;;;;;12.93;8.35;;;;;;;;;;701494;28;1034;-63
2024/02/08 01:37:40;;;;;;;12.90;8.48;;;;;;;;;;700577;28;1711;-63
2024/02/08 01:38:00;;;;;;;12.97;8.50;;;;;;;;;;700944;28;1209;-63
2024/02/08 01:38:21;;;;;;;11.97;8.03;;;;;;;;;;702803;28;918;-64
2024/02/08 01:38:42;;;;;;;11.80;8.05;;;;;;;;;;701613;28;2325;-63
2024/02/08 01:39:04;;;;;;;12.85;8.05;;;;;;;;;;704789;27;1192;-63
2024/02/08 01:39:25;;;;;;;14.02;8.40;;;;;;;;;;704148;27;1610;-63
2024/02/08 01:39:45;;;;;;;14.60;8.60;;;;;;;;;;703218;28;765;-63
2024/02/08 01:40:16;;;;;;;13.77;8.17;;;;;;;;;;703274;28;4543;-63
2024/02/08 01:40:36;;;;;;;12.25;8.60;;;;;;;;;;703500;27;1845;-62
2024/02/08 01:40:57;;;;;;;12.05;8.45;;;;;;;;;;705517;27;1025;-64
2024/02/08 01:41:17;;;;;;;14.40;8.50;;;;;;;;;;705014;27;1949;-62
2024/02/08 01:41:37;;;;;;;12.85;8.30;;;;;;;;;;703433;28;1834;-62
2024/02/08 01:41:58;;;;;;;12.93;8.17;;;;;;;;;;704689;27;864;-64
2024/02/08 01:42:18;;;;;;;13.23;8.05;;;;;;;;;;703945;27;884;-64
2024/02/08 01:42:38;;;;;;;14.30;8.30;;;;;;;;;;703826;27;2162;-64
2024/02/08 01:42:58;;;;;;;12.23;7.37;;;;;;;;;;703376;27;4299;-63
2024/02/08 01:43:19;;;;;;;11.00;7.03;;;;;;;;;;704457;27;4983;-63
2024/02/08 01:43:39;;;;;;;10.63;6.33;;;;;;;;;;703881;27;1557;-63
2024/02/08 01:44:03;;;;;;;12.13;6.20;;;;;;;;;;706576;27;871;-63
2024/02/08 01:44:23;;;;;;;11.10;6.68;;;;;;;;;;701804;28;2230;-63
2024/02/08 01:44:45;;;;;;;12.60;7.43;;;;;;;;;;700217;28;2478;-62
2024/02/08 01:45:37;;;;;;;11.63;6.93;;;;;;;;;;703416;28;892;-62
2024/02/08 01:45:58;;;;;;;9.77;6.05;;;;;;;;;;691156;28;4857;-63
2024/02/08 01:46:18;;;;;;;11.40;6.33;;;;;;;;;;698591;27;1005;-62
2024/02/08 01:46:38;;;;;;;12.80;6.63;;;;;;;;;;703784;27;1873;-63
2024/02/08 01:46:58;;;;;;;10.60;6.00;;;;;;;;;;705796;27;962;-62
2024/02/08 01:47:20;;;;;;;10.93;6.53;;;;;;;;;;705376;27;785;-64
2024/02/08 01:47:40;;;;;;;11.82;6.07;;;;;;;;;;702253;28;1049;-63
2024/02/08 01:48:02;;;;;;;10.23;5.93;;;;;;;;;;705118;27;1010;-63
2024/02/08 01:48:25;;;;;;;10.35;6.18;;;;;;;;;;705098;27;848;-64
2024/02/08 01:48:45;;;;;;;10.15;5.72;;;;;;;;;;704673;27;985;-63
2024/02/08 01:49:07;;;;;;;10.33;5.60;;;;;;;;;;703901;28;4562;-62
2024/02/08 01:49:28;;;;;;;9.70;6.00;;;;;;;;;;704221;27;1574;-63
2024/02/08 01:49:49;;;;;;;10.50;6.32;;;;;;;;;;703785;27;999;-63
2024/02/08 01:50:09;;;;;;;11.23;6.10;;;;;;;;;;705712;27;765;-63
2024/02/08 01:50:40;;;;;;;9.80;5.93;;;;;;;;;;701829;28;1698;-63
2024/02/08 01:51:02;;;;;;;10.82;6.03;;;;;;;;;;704083;28;1634;-63
2024/02/08 01:51:24;;;;;;;10.35;6.20;;;;;;;;;;700217;28;916;-64
2024/02/08 01:51:45;;;;;;;10.15;5.82;;;;;;;;;;698582;28;1038;-63
2024/02/08 01:52:05;;;;;;;12.10;6.10;;;;;;;;;;698179;28;4309;-63
2024/02/08 01:52:28;;;;;;;11.68;5.93;;;;;;;;;;697728;28;2284;-63
2024/02/08 01:52:50;;;;;;;11.50;5.93;;;;;;;;;;701404;28;943;-62
2024/02/08 01:53:15;;;;;;;9.98;6.22;;;;;;;;;;703347;28;945;-63
2024/02/08 01:53:35;;;;;;;11.60;6.22;;;;;;;;;;704321;27;2180;-64
2024/02/08 01:53:56;;;;;;;11.07;5.90;;;;;;;;;;704751;27;1049;-62
2024/02/08 01:54:19;;;;;;;10.85;5.70;;;;;;;;;;702573;27;1010;-63
2024/02/08 01:54:43;;;;;;;9.85;6.00;;;;;;;;;;702346;28;1807;-63
2024/02/08 01:55:06;;;;;;;10.88;6.18;;;;;;;;;;705209;27;4250;-64
2024/02/08 01:55:32;;;;;;;10.52;5.90;;;;;;;;;;701432;28;2098;-62
2024/02/08 01:55:54;;;;;;;10.93;6.13;;;;;;;;;;700368;28;837;-63
2024/02/08 01:56:15;;;;;;;9.90;6.35;;;;;;;;;;696287;28;1424;-63
2024/02/08 01:56:36;;;;;;;11.80;6.32;;;;;;;;;;692658;28;2320;-63
2024/02/08 01:56:58;;;;;;;10.53;6.07;;;;;;;;;;693512;28;825;-63
2024/02/08 01:57:19;;;;;;;10.23;6.20;;;;;;;;;;691506;28;1159;-63
2024/02/08 01:57:39;;;;;;;11.03;6.27;;;;;;;;;;693524;28;1012;-63
2024/02/08 01:58:03;;;;;;;11.40;6.53;;;;;;;;;;694588;28;4337;-63
2024/02/08 01:58:24;;;;;;;11.02;6.05;;;;;;;;;;700233;28;1058;-62
2024/02/08 01:58:46;;;;;;;9.65;5.95;;;;;;;;;;698083;28;1194;-64
2024/02/08 01:59:14;;;;;;;10.65;5.57;;;;;;;;;;698009;28;2244;-63
2024/02/08 01:59:34;;;;;;;12.20;6.10;;;;;;;;;;692715;28;1843;-62
2024/02/08 01:59:54;;;;;;;10.73;6.17;;;;;;;;;;693970;28;1242;-64
2024/02/08 02:00:15;;;;;;;11.25;6.10;;;;;;;;;;691179;28;838;-63
2024/02/08 02:00:36;;;;;;;10.90;5.80;;;;;;;;;;690648;28;1725;-63
2024/02/08 02:00:59;;;;;;;10.07;5.65;;;;;;;;;;694907;28;5152;-64
2024/02/08 02:01:22;;;;;;;9.68;5.85;;;;;;;;;;698155;28;1982;-63
2024/02/08 02:01:46;;;;;;;11.10;6.30;;;;;;;;;;701047;28;1607;-63
2024/02/08 02:02:07;;;;;;;11.82;5.97;;;;;;;;;;699883;28;829;-62
2024/02/08 02:02:28;;;;;;;9.75;6.00;;;;;;;;;;698535;28;1975;-63
2024/02/08 02:02:53;;;;;;;10.70;5.63;;;;;;;;;;705283;27;848;-63
2024/02/08 02:03:13;;;;;;;10.15;5.57;;;;;;;;;;700557;28;975;-63
2024/02/08 02:03:35;;;;;;;10.27;5.83;;;;;;;;;;701352;28;960;-63
2024/02/08 02:03:55;;;;;;;11.18;5.95;;;;;;;;;;701174;28;4413;-62
2024/02/08 02:04:16;;;;;;;11.47;6.23;;;;;;;;;;702193;28;927;-63
2024/02/08 02:04:39;;;;;;;10.70;6.20;;;;;;;;;;699654;28;1885;-64
2024/02/08 02:05:00;;;;;;;11.05;6.03;;;;;;;;;;704085;27;967;-62
2024/02/08 02:05:22;;;;;;;9.75;5.68;;;;;;;;;;706498;27;903;-63
2024/02/08 02:05:46;;;;;;;11.48;6.40;;;;;;;;;;700822;28;2295;-63
2024/02/08 02:06:08;;;;;;;12.55;5.80;;;;;;;;;;703882;28;825;-64
2024/02/08 02:06:28;;;;;;;11.27;6.07;;;;;;;;;;698274;28;1698;-63
2024/02/08 02:06:48;;;;;;;10.53;6.07;;;;;;;;;;700362;28;849;-63
2024/02/08 02:07:09;;;;;;;11.35;6.25;;;;;;;;;;700321;28;4312;-64
2024/02/08 02:07:30;;;;;;;11.23;6.17;;;;;;;;;;697996;28;1810;-64
2024/02/08 02:07:50;;;;;;;10.07;5.95;;;;;;;;;;700916;28;856;-63
2024/02/08 02:08:10;;;;;;;10.40;5.63;;;;;;;;;;703646;28;1157;-63
2024/02/08 02:08:33;;;;;;;11.07;6.00;;;;;;;;;;703920;27;1757;-64
2024/02/08 02:08:57;;;;;;;9.77;5.65;;;;;;;;;;705432;27;833;-63
2024/02/08 02:09:24;;;;;;;9.18;5.80;;;;;;;;;;705056;27;970;-64
2024/02/08 02:09:44;;;;;;;10.30;5.90;;;;;;;;;;703706;27;2240;-62